KBDE/BDE METAR and TAF weather

Enter ICAO airport designator
Station Type Date Time Source
KBDE METAR 2021/04/17 00:53 UTC NOAA

KBDE 170053Z AUTO 34006KT 10SM CLR 08/M03 A3009 RMK AO2 SLP202 T00781033


Station Type Date Time Source
KBDE Decoded METAR 2021/04/17 00:53 UTC NOAA

BAUDETTE INTERNATIONAL AIRPORT, MN, United States (KBDE) 48-44N 94-37W 329M
Apr 16, 2021 - 08:53 PM EDT / 2021.04.17 0053 UTC
Wind: from the NNW (340 degrees) at 7 MPH (6 KT):0
Visibility: 10 mile(s):0
Sky conditions: clear
Temperature: 46.0 F (7.8 C)
Dew Point: 26.1 F (-3.3 C)
Relative Humidity: 45%
Pressure (altimeter): 30.09 in. Hg (1018 hPa)
ob: KBDE 170053Z AUTO 34006KT 10SM CLR 08/M03 A3009 RMK AO2 SLP202 T00781033
cycle: 1

Station Type Date Time Source
KBDE TAF UTC NOAA

Error!

Example: see airport list